Time;durP1;ratioP1;P1;durP2;ratioP2;P2;SDS_P1;SDS_P2;PMS_P1;PMS_P2;Temp;Humidity;BMP_temperature;BMP_pressure;BME280_temperature;BME280_humidity;BME280_pressure;Samples;Min_cycle;Max_cycle;Signal;HPM_P1;HPM_P2
2023/01/19 08:23:33;;;;;;;;;53.67;41.33;;;;;;;;5044617;27;2267237;-75
2023/01/19 08:39:49;;;;;;;;;45.00;34.75;;;;;;;;5050310;28;9490;-87
2023/01/19 08:47:49;;;;;;;;;45.25;35.00;;;;;;;;5050506;28;13540;-82
2023/01/19 08:51:33;;;;;;;;;37.25;33.50;;;;;;;;5055265;28;12160;-90
2023/01/19 08:54:00;;;;;;;;;44.50;36.75;;;;;;;;5010092;28;8754;-90
2023/01/19 08:58:54;;;;;;;;;44.00;34.75;;;;;;;;5069334;27;13434;-80
2023/01/19 09:02:27;;;;;;;;;42.33;35.00;;;;;;;;5016131;27;2166960;-80
2023/01/19 09:05:00;;;;;;;;;36.50;31.00;;;;;;;;5063337;28;13461;-89
2023/01/19 09:07:48;;;;;;;;;42.00;33.75;;;;;;;;5064993;28;13431;-89
2023/01/19 09:13:18;;;;;;;;;39.50;34.25;;;;;;;;5061892;28;13461;-87
2023/01/19 09:15:45;;;;;;;;;43.25;37.50;;;;;;;;5050974;28;8776;-91
2023/01/19 09:18:13;;;;;;;;;42.00;34.00;;;;;;;;5050386;28;8760;-88
2023/01/19 09:20:43;;;;;;;;;45.00;35.25;;;;;;;;5034050;28;8863;-85
2023/01/19 09:23:12;;;;;;;;;45.00;37.00;;;;;;;;5049723;28;8783;-87
2023/01/19 09:25:38;;;;;;;;;42.25;33.75;;;;;;;;5033894;28;8748;-89
2023/01/19 09:28:06;;;;;;;;;44.00;34.75;;;;;;;;5034221;28;8704;-87
2023/01/19 09:30:35;;;;;;;;;48.25;37.50;;;;;;;;5049203;28;8733;-85
2023/01/19 09:35:02;;;;;;;;;41.00;36.00;;;;;;;;5049423;22;2100165;-74
2023/01/19 09:37:28;;;;;;;;;43.25;35.25;;;;;;;;5054642;28;8772;-75
2023/01/19 09:41:41;;;;;;;;;42.00;35.00;;;;;;;;5060971;27;13456;-93
2023/01/19 09:44:09;;;;;;;;;47.50;38.50;;;;;;;;5034762;28;8884;-88
2023/01/19 09:46:39;;;;;;;;;45.75;37.00;;;;;;;;5051136;28;8829;-87
2023/01/19 09:49:13;;;;;;;;;43.75;35.00;;;;;;;;5035124;28;8823;-90
2023/01/19 09:51:41;;;;;;;;;44.25;37.00;;;;;;;;5034484;28;8762;-92
2023/01/19 09:54:17;;;;;;;;;39.75;34.50;;;;;;;;5035606;28;8876;-90
2023/01/19 09:56:44;;;;;;;;;44.50;37.00;;;;;;;;5035459;28;8844;-91
2023/01/19 10:00:36;;;;;;;;;46.50;39.50;;;;;;;;5076356;28;9446;-85
2023/01/19 10:03:08;;;;;;;;;47.00;38.50;;;;;;;;5052684;28;8724;-75
2023/01/19 10:05:45;;;;;;;;;48.00;37.75;;;;;;;;5053513;28;8806;-76
2023/01/19 10:08:12;;;;;;;;;47.75;40.25;;;;;;;;5070424;28;8761;-86
2023/01/19 10:10:41;;;;;;;;;45.25;37.25;;;;;;;;5053639;28;8737;-87
2023/01/19 10:13:25;;;;;;;;;35.50;28.00;;;;;;;;5070122;28;8712;-88
2023/01/19 10:16:08;;;;;;;;;46.00;37.50;;;;;;;;5029882;28;8743;-79
2023/01/19 10:18:42;;;;;;;;;49.50;39.25;;;;;;;;5004885;28;8811;-84
2023/01/19 10:21:11;;;;;;;;;46.25;37.75;;;;;;;;5017410;28;8798;-87
2023/01/19 10:23:53;;;;;;;;;46.50;37.50;;;;;;;;5032651;28;8771;-87
2023/01/19 10:26:27;;;;;;;;;45.75;39.00;;;;;;;;5032245;28;8797;-77
2023/01/19 10:28:58;;;;;;;;;43.50;35.25;;;;;;;;5044796;28;8785;-79
2023/01/19 10:31:24;;;;;;;;;43.25;37.25;;;;;;;;5057646;28;8753;-88
2023/01/19 10:33:51;;;;;;;;;47.00;38.75;;;;;;;;5073029;28;8810;-89
2023/01/19 10:36:31;;;;;;;;;47.00;38.00;;;;;;;;5055318;28;9602;-81
2023/01/19 10:38:58;;;;;;;;;44.50;35.50;;;;;;;;5056337;28;8992;-83
2023/01/19 10:41:44;;;;;;;;;54.75;41.75;;;;;;;;5071939;28;8769;-89
2023/01/19 10:44:11;;;;;;;;;50.75;41.00;;;;;;;;5072179;28;8750;-79
2023/01/19 10:46:40;;;;;;;;;53.00;42.50;;;;;;;;5072274;28;8758;-79
2023/01/19 10:49:06;;;;;;;;;57.75;43.50;;;;;;;;5055838;28;8738;-85
2023/01/19 10:51:33;;;;;;;;;60.50;48.50;;;;;;;;5071602;28;8749;-88
2023/01/19 10:54:01;;;;;;;;;58.50;46.00;;;;;;;;5055760;28;8733;-85
2023/01/19 10:56:30;;;;;;;;;54.00;43.75;;;;;;;;5055734;28;8781;-87
2023/01/19 10:58:59;;;;;;;;;51.50;43.50;;;;;;;;5072882;28;8786;-88
2023/01/19 11:01:26;;;;;;;;;57.75;45.50;;;;;;;;5038432;28;8877;-81
2023/01/19 11:03:55;;;;;;;;;53.50;45.00;;;;;;;;5056258;28;8743;-88
2023/01/19 11:06:26;;;;;;;;;52.75;44.25;;;;;;;;5055274;28;8734;-89
2023/01/19 11:10:22;;;;;;;;;55.25;43.25;;;;;;;;5106974;27;13375;-80
2023/01/19 11:12:56;;;;;;;;;54.00;43.50;;;;;;;;5069564;28;8803;-80
2023/01/19 11:15:24;;;;;;;;;53.75;42.75;;;;;;;;5069776;28;8797;-85
2023/01/19 11:17:52;;;;;;;;;55.00;45.50;;;;;;;;5052980;28;8771;-82
2023/01/19 11:20:42;;;;;;;;;59.25;43.25;;;;;;;;5053162;28;8771;-81
2023/01/19 11:24:00;;;;;;;;;56.00;43.75;;;;;;;;5082757;27;13502;-81
2023/01/19 11:28:40;;;;;;;;;53.00;42.25;;;;;;;;5123622;27;13462;-87
2023/01/19 11:33:01;;;;;;;;;58.33;43.33;;;;;;;;4985829;27;2139443;-81
2023/01/19 11:35:29;;;;;;;;;53.75;43.25;;;;;;;;5029733;28;11482;-80
2023/01/19 11:38:06;;;;;;;;;57.00;46.25;;;;;;;;5030150;28;8770;-80
2023/01/19 11:40:33;;;;;;;;;52.75;43.50;;;;;;;;5030573;28;8722;-81
2023/01/19 11:43:00;;;;;;;;;57.25;45.00;;;;;;;;5030272;28;8787;-81
2023/01/19 11:45:26;;;;;;;;;60.00;49.75;;;;;;;;5029549;28;8868;-81
2023/01/19 11:47:53;;;;;;;;;60.50;49.25;;;;;;;;5013462;28;8759;-81
2023/01/19 11:50:24;;;;;;;;;64.25;49.25;;;;;;;;5013181;28;8775;-80
2023/01/19 11:53:01;;;;;;;;;67.50;53.25;;;;;;;;5013858;28;8860;-81
2023/01/19 11:55:37;;;;;;;;;64.75;51.50;;;;;;;;5013068;28;8899;-80
2023/01/19 11:58:03;;;;;;;;;61.50;47.50;;;;;;;;5031229;28;8805;-80
2023/01/19 12:00:37;;;;;;;;;61.00;49.25;;;;;;;;5024116;28;8773;-80
2023/01/19 12:03:13;;;;;;;;;57.25;47.50;;;;;;;;5010040;28;8756;-86
2023/01/19 12:05:40;;;;;;;;;62.50;50.25;;;;;;;;5010719;28;8753;-80
2023/01/19 12:08:07;;;;;;;;;66.25;51.75;;;;;;;;4993466;28;8769;-80
2023/01/19 12:10:35;;;;;;;;;67.25;50.00;;;;;;;;5009477;28;8745;-81
2023/01/19 12:13:01;;;;;;;;;79.40;65.60;;;;;;;;5011260;28;8775;-80
2023/01/19 12:15:38;;;;;;;;;74.25;57.75;;;;;;;;5027097;28;8919;-81
2023/01/19 12:18:06;;;;;;;;;71.50;57.50;;;;;;;;5011837;28;8711;-85
2023/01/19 12:20:40;;;;;;;;;79.40;65.60;;;;;;;;5028635;28;8850;-80
2023/01/19 12:23:17;;;;;;;;;85.40;69.60;;;;;;;;5029421;28;8743;-80
2023/01/19 12:25:55;;;;;;;;;80.40;67.00;;;;;;;;5028831;28;8836;-80
2023/01/19 12:28:23;;;;;;;;;74.80;60.80;;;;;;;;5045891;28;8750;-81
2023/01/19 12:30:50;;;;;;;;;81.00;69.00;;;;;;;;5030469;28;9859;-81
2023/01/19 12:33:21;;;;;;;;;78.40;65.60;;;;;;;;5032274;28;8749;-81
2023/01/19 12:36:11;;;;;;;;;86.40;76.00;;;;;;;;5032348;28;8788;-81
2023/01/19 12:38:56;;;;;;;;;83.60;70.00;;;;;;;;5021988;28;8796;-81
2023/01/19 12:41:23;;;;;;;;;79.60;65.00;;;;;;;;5015634;28;8793;-80
2023/01/19 12:44:14;;;;;;;;;70.80;55.00;;;;;;;;5017217;28;8753;-80
2023/01/19 12:46:48;;;;;;;;;72.40;58.20;;;;;;;;4988359;28;8744;-80
2023/01/19 12:49:14;;;;;;;;;72.80;59.60;;;;;;;;4999499;28;8744;-81
2023/01/19 12:51:41;;;;;;;;;74.80;57.40;;;;;;;;5016454;28;8779;-81
2023/01/19 12:54:08;;;;;;;;;74.00;55.60;;;;;;;;4983029;28;8779;-81
2023/01/19 12:56:36;;;;;;;;;76.00;62.60;;;;;;;;4998627;28;8780;-80
2023/01/19 12:59:03;;;;;;;;;76.20;64.60;;;;;;;;4989126;28;8761;-81
2023/01/19 13:01:29;;;;;;;;;72.80;58.40;;;;;;;;5001979;28;8871;-81
2023/01/19 13:04:14;;;;;;;;;79.60;63.40;;;;;;;;5019087;28;8754;-80
2023/01/19 13:06:47;;;;;;;;;79.60;67.20;;;;;;;;5035693;28;8935;-81
2023/01/19 13:09:43;;;;;;;;;80.80;65.40;;;;;;;;5036185;28;8738;-81
2023/01/19 13:12:10;;;;;;;;;80.60;67.40;;;;;;;;5018828;28;8876;-81
2023/01/19 13:14:37;;;;;;;;;78.40;62.20;;;;;;;;5024313;28;9109;-81
2023/01/19 13:17:04;;;;;;;;;77.20;60.00;;;;;;;;4982666;28;8776;-81
2023/01/19 13:19:51;;;;;;;;;78.80;62.20;;;;;;;;4998337;28;8787;-81
2023/01/19 13:22:36;;;;;;;;;80.60;65.80;;;;;;;;4960073;28;8768;-81
2023/01/19 13:25:09;;;;;;;;;73.60;58.20;;;;;;;;5016710;28;8759;-81
2023/01/19 13:27:36;;;;;;;;;72.00;56.80;;;;;;;;4998295;28;8844;-81
2023/01/19 13:30:02;;;;;;;;;72.40;60.20;;;;;;;;5030366;28;8774;-81
2023/01/19 13:32:29;;;;;;;;;76.60;64.20;;;;;;;;5013985;28;8881;-81
2023/01/19 13:35:00;;;;;;;;;76.20;66.00;;;;;;;;4998417;28;8767;-81
2023/01/19 13:37:43;;;;;;;;;79.40;63.80;;;;;;;;5014568;28;8775;-81
2023/01/19 13:40:20;;;;;;;;;71.80;60.80;;;;;;;;5015522;28;8858;-81
2023/01/19 13:42:46;;;;;;;;;85.80;74.80;;;;;;;;5014778;28;8798;-81
2023/01/19 13:45:33;;;;;;;;;79.40;71.20;;;;;;;;5013283;28;8759;-81
2023/01/19 13:48:00;;;;;;;;;79.60;71.00;;;;;;;;4998325;28;8798;-81
2023/01/19 13:50:28;;;;;;;;;84.80;74.00;;;;;;;;4997891;28;8814;-81
2023/01/19 13:52:55;;;;;;;;;86.00;77.40;;;;;;;;5014292;28;8806;-81
2023/01/19 13:55:22;;;;;;;;;98.40;79.40;;;;;;;;4997548;28;8774;-81
2023/01/19 13:57:49;;;;;;;;;82.00;74.00;;;;;;;;5013998;28;8747;-81
2023/01/19 14:00:29;;;;;;;;;83.60;75.20;;;;;;;;5015271;28;8798;-81
2023/01/19 14:03:14;;;;;;;;;83.20;73.60;;;;;;;;4998059;28;8797;-81
2023/01/19 14:05:41;;;;;;;;;75.20;61.80;;;;;;;;5015255;28;8921;-86
2023/01/19 14:08:11;;;;;;;;;88.80;80.00;;;;;;;;4997591;28;8778;-81
2023/01/19 14:10:48;;;;;;;;;85.60;72.60;;;;;;;;5013694;28;8777;-81
2023/01/19 14:13:15;;;;;;;;;89.20;77.60;;;;;;;;5014669;28;8857;-81
2023/01/19 14:15:41;;;;;;;;;80.20;75.60;;;;;;;;4994200;28;8776;-81
2023/01/19 14:18:08;;;;;;;;;81.80;74.60;;;;;;;;4994307;28;8915;-81
2023/01/19 14:20:38;;;;;;;;;88.40;77.60;;;;;;;;4993932;28;8815;-85
2023/01/19 14:25:31;;;;;;;;;79.25;70.25;;;;;;;;4522177;27;15213430;-82
2023/01/19 14:28:16;;;;;;;;;78.40;60.40;;;;;;;;5016105;28;8764;-82
2023/01/19 14:30:53;;;;;;;;;86.40;73.00;;;;;;;;5030748;28;8764;-81
2023/01/19 14:33:38;;;;;;;;;78.60;64.00;;;;;;;;5030890;28;8764;-81
2023/01/19 14:36:16;;;;;;;;;85.40;70.80;;;;;;;;5013690;28;8760;-81
2023/01/19 14:38:44;;;;;;;;;83.60;71.20;;;;;;;;5029979;28;8771;-82
2023/01/19 14:41:10;;;;;;;;;74.80;65.20;;;;;;;;5030044;28;8782;-82
2023/01/19 14:43:37;;;;;;;;;75.20;59.80;;;;;;;;5015846;28;8804;-81
2023/01/19 14:46:04;;;;;;;;;86.80;74.60;;;;;;;;5050351;28;8768;-81
2023/01/19 14:48:31;;;;;;;;;78.60;70.80;;;;;;;;5033063;28;8772;-81
2023/01/19 14:51:01;;;;;;;;;82.20;73.60;;;;;;;;5049588;28;8879;-82
2023/01/19 14:53:28;;;;;;;;;88.60;75.60;;;;;;;;5049032;28;8800;-87
2023/01/19 14:55:59;;;;;;;;;87.80;72.00;;;;;;;;5033193;28;8753;-81
2023/01/19 14:58:26;;;;;;;;;79.40;72.20;;;;;;;;5031480;28;8756;-81
2023/01/19 15:00:56;;;;;;;;;95.00;84.40;;;;;;;;5013780;28;8778;-81
2023/01/19 15:03:23;;;;;;;;;85.00;77.40;;;;;;;;5013500;28;8811;-81
2023/01/19 15:05:49;;;;;;;;;86.80;77.20;;;;;;;;5013072;28;8778;-81
2023/01/19 15:08:25;;;;;;;;;86.00;76.00;;;;;;;;5013056;28;8767;-81
2023/01/19 15:10:52;;;;;;;;;81.60;71.80;;;;;;;;5029124;28;8794;-81
2023/01/19 15:13:19;;;;;;;;;79.40;70.40;;;;;;;;5029986;28;8758;-82
2023/01/19 15:15:46;;;;;;;;;81.20;75.00;;;;;;;;5049168;28;8752;-82
2023/01/19 15:18:20;;;;;;;;;82.40;74.80;;;;;;;;5032790;28;8865;-81
2023/01/19 15:20:50;;;;;;;;;74.80;64.80;;;;;;;;5049171;28;8783;-81
2023/01/19 15:23:17;;;;;;;;;73.20;63.20;;;;;;;;5032019;28;8938;-82
2023/01/19 15:25:43;;;;;;;;;70.20;55.40;;;;;;;;5049029;28;8764;-82
2023/01/19 15:28:13;;;;;;;;;77.60;70.00;;;;;;;;5032970;28;8765;-82
2023/01/19 15:30:40;;;;;;;;;78.60;69.60;;;;;;;;5012655;28;8747;-82
2023/01/19 15:33:08;;;;;;;;;77.80;64.80;;;;;;;;5029207;28;8775;-82
2023/01/19 15:35:35;;;;;;;;;76.40;62.80;;;;;;;;5022346;28;8852;-82
2023/01/19 15:38:02;;;;;;;;;80.60;71.00;;;;;;;;4999367;28;8809;-80
2023/01/19 15:40:28;;;;;;;;;76.60;68.00;;;;;;;;4999043;28;8875;-80
2023/01/19 15:42:55;;;;;;;;;78.40;70.40;;;;;;;;5017336;28;8735;-80
2023/01/19 15:45:28;;;;;;;;;76.60;71.80;;;;;;;;5015856;28;8887;-80
2023/01/19 15:47:54;;;;;;;;;75.00;62.60;;;;;;;;5036444;28;8752;-80
2023/01/19 15:50:21;;;;;;;;;89.00;76.20;;;;;;;;5034907;28;8875;-85
2023/01/19 15:52:48;;;;;;;;;88.20;76.40;;;;;;;;5035031;28;8768;-80
2023/01/19 15:55:14;;;;;;;;;80.00;73.40;;;;;;;;5019313;28;8717;-80
2023/01/19 15:57:41;;;;;;;;;78.80;67.20;;;;;;;;5034682;28;8810;-80
2023/01/19 16:00:08;;;;;;;;;81.60;75.40;;;;;;;;5003389;28;8790;-80
2023/01/19 16:02:35;;;;;;;;;88.60;82.00;;;;;;;;5015988;28;8759;-81
2023/01/19 16:05:02;;;;;;;;;87.40;79.20;;;;;;;;5015160;28;8767;-80
2023/01/19 16:07:28;;;;;;;;;94.80;90.20;;;;;;;;5014694;28;8856;-80
2023/01/19 16:09:55;;;;;;;;;103.60;90.40;;;;;;;;5015831;28;8759;-80
2023/01/19 16:12:22;;;;;;;;;105.00;86.80;;;;;;;;5014441;28;8751;-80
2023/01/19 16:14:48;;;;;;;;;98.80;87.80;;;;;;;;5027199;28;8781;-81
2023/01/19 16:17:15;;;;;;;;;91.40;81.40;;;;;;;;5035687;28;8772;-86
2023/01/19 16:19:42;;;;;;;;;87.00;78.40;;;;;;;;5034749;28;8781;-81
2023/01/19 16:22:10;;;;;;;;;87.80;78.40;;;;;;;;5018720;28;8842;-81
2023/01/19 16:24:36;;;;;;;;;85.20;76.20;;;;;;;;5034053;28;8827;-81
2023/01/19 16:27:03;;;;;;;;;85.20;77.00;;;;;;;;5034349;28;8771;-82
2023/01/19 16:29:30;;;;;;;;;89.60;77.80;;;;;;;;5007796;28;8771;-82
2023/01/19 16:31:57;;;;;;;;;95.80;84.60;;;;;;;;5014362;28;8824;-81
2023/01/19 16:34:24;;;;;;;;;92.60;86.40;;;;;;;;5016302;28;8731;-81
2023/01/19 16:36:51;;;;;;;;;96.20;82.40;;;;;;;;5015186;28;8766;-81
2023/01/19 16:39:17;;;;;;;;;97.00;89.80;;;;;;;;5014485;28;8731;-81
2023/01/19 16:41:44;;;;;;;;;88.00;79.20;;;;;;;;5015623;28;8786;-81
2023/01/19 16:44:11;;;;;;;;;91.00;79.40;;;;;;;;5005286;28;8792;-86
2023/01/19 16:46:42;;;;;;;;;93.40;83.00;;;;;;;;5016817;28;8796;-81
2023/01/19 16:49:12;;;;;;;;;92.40;79.80;;;;;;;;5017842;28;8800;-81
2023/01/19 16:51:39;;;;;;;;;91.00;81.20;;;;;;;;5017443;28;8788;-82
2023/01/19 16:54:06;;;;;;;;;93.80;83.60;;;;;;;;5034075;28;8906;-81
2023/01/19 16:56:32;;;;;;;;;106.40;94.80;;;;;;;;5017285;28;8780;-81
2023/01/19 16:58:59;;;;;;;;;90.60;81.20;;;;;;;;5029466;28;8779;-85
2023/01/19 17:01:27;;;;;;;;;93.40;85.40;;;;;;;;4998193;28;8774;-81
2023/01/19 17:03:54;;;;;;;;;94.60;86.20;;;;;;;;5015105;28;8779;-81
2023/01/19 17:06:23;;;;;;;;;94.20;86.60;;;;;;;;4997623;28;8785;-81
2023/01/19 17:08:50;;;;;;;;;90.00;76.80;;;;;;;;5015043;28;8778;-82
2023/01/19 17:11:20;;;;;;;;;84.60;76.80;;;;;;;;4997441;28;8751;-82
2023/01/19 17:13:52;;;;;;;;;82.60;73.00;;;;;;;;5017666;28;8762;-81
2023/01/19 17:16:19;;;;;;;;;86.80;75.20;;;;;;;;5033883;28;8753;-81
2023/01/19 17:18:46;;;;;;;;;84.00;78.20;;;;;;;;5017020;28;8745;-82
2023/01/19 17:21:16;;;;;;;;;87.00;78.20;;;;;;;;5017200;28;8803;-82
2023/01/19 17:23:43;;;;;;;;;81.40;77.20;;;;;;;;5017331;28;8836;-81
2023/01/19 17:26:10;;;;;;;;;76.80;66.80;;;;;;;;5033503;28;8835;-81
2023/01/19 17:28:37;;;;;;;;;86.60;75.00;;;;;;;;5013826;28;8729;-81
2023/01/19 17:31:07;;;;;;;;;80.00;74.20;;;;;;;;5015350;28;8785;-81
2023/01/19 17:33:33;;;;;;;;;82.40;72.60;;;;;;;;5013240;28;8897;-81
2023/01/19 17:36:04;;;;;;;;;92.00;83.80;;;;;;;;4997369;28;8783;-81
2023/01/19 17:38:30;;;;;;;;;82.80;71.60;;;;;;;;5013135;28;8779;-81
2023/01/19 17:40:57;;;;;;;;;88.60;77.20;;;;;;;;4997069;28;8774;-86
2023/01/19 17:43:23;;;;;;;;;81.60;73.40;;;;;;;;4998027;28;8819;-81
2023/01/19 17:45:50;;;;;;;;;80.60;72.80;;;;;;;;5033478;28;8744;-81
2023/01/19 17:48:17;;;;;;;;;83.80;75.80;;;;;;;;5033861;28;8862;-81
2023/01/19 17:50:44;;;;;;;;;86.20;76.80;;;;;;;;5032728;28;8779;-81
2023/01/19 17:53:11;;;;;;;;;79.80;71.00;;;;;;;;5016665;28;8764;-81
2023/01/19 17:55:37;;;;;;;;;81.00;74.80;;;;;;;;5032573;28;8764;-81
2023/01/19 17:58:04;;;;;;;;;90.80;78.80;;;;;;;;5034455;28;8729;-81
2023/01/19 18:00:31;;;;;;;;;79.20;71.20;;;;;;;;4997931;28;8779;-81
2023/01/19 18:02:57;;;;;;;;;77.80;73.00;;;;;;;;5013090;28;8894;-81
2023/01/19 18:05:24;;;;;;;;;83.20;74.20;;;;;;;;5012686;28;8779;-81
2023/01/19 18:07:51;;;;;;;;;81.60;76.40;;;;;;;;5012895;28;8763;-86
2023/01/19 18:10:17;;;;;;;;;81.00;67.00;;;;;;;;5013400;28;8747;-81
2023/01/19 18:12:44;;;;;;;;;81.20;69.80;;;;;;;;5013123;28;8762;-81
2023/01/19 18:15:11;;;;;;;;;77.80;65.60;;;;;;;;5028167;28;8752;-80
2023/01/19 18:17:38;;;;;;;;;80.20;69.00;;;;;;;;5032273;28;8782;-81
2023/01/19 18:20:05;;;;;;;;;80.60;73.20;;;;;;;;5016398;28;8833;-81
2023/01/19 18:22:32;;;;;;;;;80.80;70.80;;;;;;;;5032195;28;8751;-81
2023/01/19 18:25:00;;;;;;;;;78.80;69.40;;;;;;;;5016581;28;8756;-81
2023/01/19 18:27:28;;;;;;;;;81.20;69.60;;;;;;;;5032276;28;8752;-81
2023/01/19 18:29:55;;;;;;;;;84.80;72.40;;;;;;;;5020628;28;8739;-81
2023/01/19 18:32:21;;;;;;;;;81.20;69.80;;;;;;;;5012701;28;8755;-81
2023/01/19 18:34:50;;;;;;;;;80.00;68.00;;;;;;;;5012566;28;9028;-87
2023/01/19 18:37:17;;;;;;;;;83.20;70.40;;;;;;;;5013517;28;8789;-81
2023/01/19 18:39:44;;;;;;;;;79.40;71.00;;;;;;;;5012576;28;8774;-81
2023/01/19 18:42:10;;;;;;;;;81.20;72.20;;;;;;;;5012735;28;8759;-81
2023/01/19 18:44:37;;;;;;;;;81.80;69.00;;;;;;;;4995878;28;8779;-80
2023/01/19 18:47:04;;;;;;;;;81.60;73.40;;;;;;;;5012717;28;8739;-81
2023/01/19 18:49:30;;;;;;;;;81.80;70.60;;;;;;;;5012597;28;8866;-81
2023/01/19 18:51:57;;;;;;;;;82.60;68.80;;;;;;;;5013240;28;8754;-81
2023/01/19 18:54:24;;;;;;;;;80.00;68.40;;;;;;;;5012411;28;8818;-81
2023/01/19 18:56:51;;;;;;;;;80.40;69.00;;;;;;;;5012582;28;8787;-81
2023/01/19 18:59:17;;;;;;;;;73.00;58.80;;;;;;;;5004035;28;8875;-81
2023/01/19 19:01:44;;;;;;;;;79.00;66.00;;;;;;;;5031875;28;8907;-86
2023/01/19 19:04:12;;;;;;;;;80.60;68.80;;;;;;;;5033002;28;8816;-80
2023/01/19 19:06:39;;;;;;;;;77.80;62.40;;;;;;;;5031806;28;8808;-81
2023/01/19 19:09:05;;;;;;;;;77.80;64.40;;;;;;;;5032564;28;8791;-80
2023/01/19 19:11:32;;;;;;;;;82.80;67.40;;;;;;;;5034315;28;8776;-81
2023/01/19 19:13:59;;;;;;;;;78.00;62.00;;;;;;;;5013782;28;8836;-81
2023/01/19 19:16:26;;;;;;;;;82.60;69.20;;;;;;;;5015991;28;8766;-81
2023/01/19 19:18:53;;;;;;;;;76.60;64.40;;;;;;;;5017421;28;8797;-82
2023/01/19 19:21:20;;;;;;;;;83.60;73.00;;;;;;;;5016304;28;8771;-81
2023/01/19 19:23:50;;;;;;;;;71.60;59.00;;;;;;;;5017211;28;8839;-81
2023/01/19 19:26:17;;;;;;;;;78.40;62.60;;;;;;;;5017499;28;8790;-81
2023/01/19 19:28:46;;;;;;;;;79.40;68.20;;;;;;;;5002902;28;8764;-81
2023/01/19 19:31:13;;;;;;;;;82.20;69.60;;;;;;;;5037484;28;8757;-81
2023/01/19 19:33:40;;;;;;;;;78.60;67.60;;;;;;;;5035317;28;8753;-81
2023/01/19 19:36:07;;;;;;;;;76.80;62.60;;;;;;;;5035526;28;8772;-81
2023/01/19 19:38:35;;;;;;;;;78.40;64.60;;;;;;;;5034991;28;8773;-81
2023/01/19 19:41:08;;;;;;;;;81.00;66.00;;;;;;;;5019063;28;8826;-81
2023/01/19 19:43:35;;;;;;;;;78.80;62.00;;;;;;;;5016223;28;8933;-87
2023/01/19 19:46:03;;;;;;;;;76.60;62.40;;;;;;;;4999911;28;8751;-81
2023/01/19 19:48:29;;;;;;;;;79.20;69.40;;;;;;;;4998924;28;8794;-81
2023/01/19 19:50:58;;;;;;;;;76.20;61.80;;;;;;;;5015429;28;8836;-81
2023/01/19 19:53:25;;;;;;;;;79.80;67.80;;;;;;;;4999065;28;8794;-81
2023/01/19 19:56:11;;;;;;;;;76.80;66.20;;;;;;;;5015386;28;8797;-81
2023/01/19 19:58:38;;;;;;;;;78.80;64.20;;;;;;;;5017642;28;8773;-81
2023/01/19 20:01:24;;;;;;;;;76.80;64.80;;;;;;;;5019270;28;8740;-81
2023/01/19 20:03:50;;;;;;;;;74.00;60.60;;;;;;;;5034847;28;8781;-81
2023/01/19 20:06:19;;;;;;;;;73.40;60.20;;;;;;;;5034828;28;8858;-81
2023/01/19 20:08:46;;;;;;;;;69.60;54.40;;;;;;;;5018677;28;8768;-81
2023/01/19 20:11:17;;;;;;;;;76.60;60.40;;;;;;;;5018450;28;8795;-81
2023/01/19 20:13:44;;;;;;;;;70.60;56.40;;;;;;;;5014680;28;8739;-81
2023/01/19 20:16:12;;;;;;;;;76.20;63.80;;;;;;;;4999290;28;8759;-81
2023/01/19 20:18:41;;;;;;;;;76.20;62.20;;;;;;;;4998601;28;8798;-81
2023/01/19 20:21:22;;;;;;;;;76.80;61.40;;;;;;;;5014718;28;8797;-81
2023/01/19 20:23:49;;;;;;;;;76.60;60.80;;;;;;;;5015876;28;8940;-81
2023/01/19 20:26:17;;;;;;;;;73.40;60.20;;;;;;;;5015984;28;8771;-81
2023/01/19 20:28:43;;;;;;;;;80.40;63.00;;;;;;;;5018153;28;8753;-81
2023/01/19 20:31:11;;;;;;;;;72.00;57.40;;;;;;;;5018698;28;8859;-80
2023/01/19 20:33:38;;;;;;;;;74.60;60.20;;;;;;;;5017881;28;8806;-81
2023/01/19 20:36:04;;;;;;;;;71.60;55.80;;;;;;;;5035495;28;8962;-81
2023/01/19 20:38:31;;;;;;;;;74.40;58.20;;;;;;;;5033930;28;9361;-81
2023/01/19 20:40:58;;;;;;;;;74.00;57.80;;;;;;;;5018070;28;8764;-81
2023/01/19 20:43:24;;;;;;;;;73.00;56.20;;;;;;;;5017274;28;8745;-81
2023/01/19 20:45:51;;;;;;;;;71.00;55.40;;;;;;;;5014718;28;8763;-81
2023/01/19 20:48:18;;;;;;;;;72.40;55.00;;;;;;;;4997899;28;8771;-81
2023/01/19 20:50:45;;;;;;;;;71.00;55.00;;;;;;;;5014162;28;8767;-81
2023/01/19 20:53:11;;;;;;;;;67.60;53.20;;;;;;;;5014183;28;9620;-81
2023/01/19 20:55:38;;;;;;;;;73.80;57.20;;;;;;;;5013849;28;8756;-81
2023/01/19 20:58:05;;;;;;;;;71.50;56.00;;;;;;;;5014927;28;8781;-81
2023/01/19 21:00:31;;;;;;;;;72.40;55.40;;;;;;;;5031979;28;8769;-81
2023/01/19 21:02:58;;;;;;;;;70.00;55.60;;;;;;;;5017384;28;8776;-81
2023/01/19 21:05:25;;;;;;;;;68.40;55.00;;;;;;;;5017362;28;8815;-81
2023/01/19 21:07:52;;;;;;;;;70.60;55.00;;;;;;;;5033490;28;8792;-81
2023/01/19 21:10:20;;;;;;;;;68.80;55.20;;;;;;;;5017764;28;9386;-81
2023/01/19 21:12:47;;;;;;;;;75.20;59.00;;;;;;;;5033568;28;8745;-81
2023/01/19 21:15:14;;;;;;;;;64.80;54.00;;;;;;;;5017798;28;8825;-81
2023/01/19 21:17:40;;;;;;;;;69.00;55.80;;;;;;;;5013664;28;8769;-81
2023/01/19 21:20:07;;;;;;;;;71.25;55.25;;;;;;;;5013663;28;8785;-80
2023/01/19 21:22:34;;;;;;;;;70.80;55.20;;;;;;;;4997365;28;8743;-81
2023/01/19 21:25:01;;;;;;;;;72.00;55.75;;;;;;;;5014138;28;8877;-84
2023/01/19 21:27:27;;;;;;;;;71.80;56.00;;;;;;;;5013731;28;8750;-80
2023/01/19 21:29:54;;;;;;;;;69.25;54.50;;;;;;;;5026546;28;8775;-80
2023/01/19 21:32:21;;;;;;;;;74.80;55.00;;;;;;;;5016735;28;8737;-81
2023/01/19 21:34:47;;;;;;;;;70.25;54.25;;;;;;;;5033051;28;8772;-81
2023/01/19 21:37:14;;;;;;;;;70.00;54.25;;;;;;;;5034769;28;8736;-81
2023/01/19 21:39:41;;;;;;;;;72.67;55.67;;;;;;;;5032793;28;8748;-81
2023/01/19 21:42:07;;;;;;;;;69.00;53.00;;;;;;;;5033089;28;8764;-81
2023/01/19 21:44:34;;;;;;;;;67.75;55.00;;;;;;;;5006229;28;8795;-81
2023/01/19 21:47:01;;;;;;;;;71.50;54.75;;;;;;;;5013544;28;8917;-80
2023/01/19 21:49:29;;;;;;;;;74.50;55.50;;;;;;;;5012699;28;8783;-81
2023/01/19 21:51:56;;;;;;;;;62.75;49.50;;;;;;;;5013728;28;8755;-85
2023/01/19 21:54:23;;;;;;;;;65.50;51.75;;;;;;;;4996788;28;8779;-81
2023/01/19 21:56:49;;;;;;;;;67.00;53.75;;;;;;;;4996894;28;8795;-81
2023/01/19 21:59:16;;;;;;;;;74.75;56.75;;;;;;;;5005100;28;8800;-81
2023/01/19 22:01:43;;;;;;;;;75.00;56.00;;;;;;;;5032963;28;8752;-81
2023/01/19 22:04:09;;;;;;;;;70.75;55.00;;;;;;;;5033225;28;8802;-82
2023/01/19 22:06:36;;;;;;;;;73.00;59.20;;;;;;;;5015991;28;8768;-81
2023/01/19 22:09:03;;;;;;;;;76.60;60.40;;;;;;;;5016457;28;8772;-81
2023/01/19 22:11:30;;;;;;;;;75.40;57.20;;;;;;;;5016085;28;8818;-81
2023/01/19 22:13:58;;;;;;;;;76.00;58.60;;;;;;;;5027585;28;8932;-81
2023/01/19 22:16:25;;;;;;;;;70.20;54.20;;;;;;;;5013901;28;8731;-81
2023/01/19 22:18:53;;;;;;;;;73.40;57.00;;;;;;;;4997016;28;8744;-86
2023/01/19 22:21:20;;;;;;;;;72.00;55.00;;;;;;;;4996221;28;8767;-82
2023/01/19 22:23:51;;;;;;;;;76.00;56.00;;;;;;;;5012425;28;8857;-81
2023/01/19 22:26:17;;;;;;;;;73.25;55.00;;;;;;;;5012834;28;8853;-82
2023/01/19 22:28:44;;;;;;;;;71.50;53.50;;;;;;;;5015982;28;8757;-81
2023/01/19 22:31:14;;;;;;;;;72.00;55.25;;;;;;;;5033016;28;8749;-81
2023/01/19 22:33:41;;;;;;;;;72.00;56.00;;;;;;;;5016008;28;8842;-81
2023/01/19 22:36:18;;;;;;;;;71.00;58.25;;;;;;;;5032348;28;8859;-82
2023/01/19 22:38:48;;;;;;;;;72.25;55.50;;;;;;;;5032582;28;8775;-81
2023/01/19 22:41:18;;;;;;;;;72.25;56.75;;;;;;;;5032208;28;8776;-81
2023/01/19 22:43:45;;;;;;;;;72.00;57.50;;;;;;;;5028989;28;8818;-81
2023/01/19 22:46:12;;;;;;;;;72.25;55.75;;;;;;;;4999101;28;8769;-81
2023/01/19 22:48:39;;;;;;;;;69.00;55.00;;;;;;;;5016567;28;8876;-81
2023/01/19 22:51:06;;;;;;;;;67.60;53.40;;;;;;;;5017737;28;8771;-81
2023/01/19 22:53:32;;;;;;;;;76.75;61.50;;;;;;;;5016677;28;8803;-81
2023/01/19 22:55:59;;;;;;;;;75.25;61.50;;;;;;;;5016638;28;8844;-81
2023/01/19 22:58:26;;;;;;;;;75.75;60.75;;;;;;;;5000764;28;8897;-81
2023/01/19 23:00:52;;;;;;;;;77.00;61.75;;;;;;;;5020338;28;8745;-85
2023/01/19 23:03:19;;;;;;;;;77.20;60.80;;;;;;;;5035573;28;8748;-81
2023/01/19 23:05:46;;;;;;;;;79.00;68.00;;;;;;;;5036279;28;8861;-80
2023/01/19 23:08:12;;;;;;;;;81.40;67.80;;;;;;;;5019650;28;8792;-82
2023/01/19 23:10:39;;;;;;;;;83.80;66.20;;;;;;;;5035921;28;8752;-80
2023/01/19 23:13:06;;;;;;;;;83.25;64.25;;;;;;;;5036656;28;8736;-80
2023/01/19 23:15:33;;;;;;;;;79.50;65.50;;;;;;;;5017520;28;8877;-80
2023/01/19 23:18:00;;;;;;;;;79.00;59.80;;;;;;;;5015902;28;8869;-80
2023/01/19 23:20:27;;;;;;;;;76.40;60.00;;;;;;;;5016212;28;8864;-81
2023/01/19 23:22:53;;;;;;;;;81.80;67.80;;;;;;;;5016074;28;8848;-81
2023/01/19 23:25:20;;;;;;;;;85.60;68.80;;;;;;;;4999856;28;8775;-82
2023/01/19 23:27:47;;;;;;;;;85.60;74.60;;;;;;;;5016006;28;8747;-86
2023/01/19 23:30:13;;;;;;;;;83.20;67.20;;;;;;;;5031434;28;8728;-81
2023/01/19 23:32:40;;;;;;;;;88.20;78.00;;;;;;;;5036405;28;8748;-81
2023/01/19 23:35:08;;;;;;;;;83.60;71.00;;;;;;;;5035110;28;8740;-81
2023/01/19 23:37:34;;;;;;;;;86.80;79.40;;;;;;;;5034783;28;8890;-81
2023/01/19 23:40:01;;;;;;;;;86.60;73.80;;;;;;;;5035684;28;8765;-81
2023/01/19 23:42:28;;;;;;;;;86.00;74.20;;;;;;;;5019037;28;8733;-81